sensor_id;sensor_type;location;lat;lon;timestamp;temperature;humidity
21267;DHT22;10791;53.108;18.326;2022-12-29T00:02:46;6.30;99.90
21267;DHT22;10791;53.108;18.326;2022-12-29T00:07:50;6.20;99.90
21267;DHT22;10791;53.108;18.326;2022-12-29T00:12:53;6.10;99.90
21267;DHT22;10791;53.108;18.326;2022-12-29T00:18:15;6.00;99.90
21267;DHT22;10791;53.108;18.326;2022-12-29T00:23:20;6.00;99.90
21267;DHT22;10791;53.108;18.326;2022-12-29T00:28:42;5.90;99.90
21267;DHT22;10791;53.108;18.326;2022-12-29T00:34:04;5.90;99.90
21267;DHT22;10791;53.108;18.326;2022-12-29T00:39:26;5.90;99.90
21267;DHT22;10791;53.108;18.326;2022-12-29T00:44:48;5.90;99.90
21267;DHT22;10791;53.108;18.326;2022-12-29T00:49:51;5.90;99.90
21267;DHT22;10791;53.108;18.326;2022-12-29T00:54:56;5.90;99.90
21267;DHT22;10791;53.108;18.326;2022-12-29T01:00:00;5.90;99.90
21267;DHT22;10791;53.108;18.326;2022-12-29T01:05:04;5.90;99.90
21267;DHT22;10791;53.108;18.326;2022-12-29T01:10:10;5.90;99.90
21267;DHT22;10791;53.108;18.326;2022-12-29T01:15:14;5.90;99.90
21267;DHT22;10791;53.108;18.326;2022-12-29T01:20:18;5.80;99.90
21267;DHT22;10791;53.108;18.326;2022-12-29T01:25:22;5.80;99.90
21267;DHT22;10791;53.108;18.326;2022-12-29T01:30:25;5.90;99.90
21267;DHT22;10791;53.108;18.326;2022-12-29T01:35:29;5.90;99.90
21267;DHT22;10791;53.108;18.326;2022-12-29T01:40:33;5.80;99.90
21267;DHT22;10791;53.108;18.326;2022-12-29T01:45:36;5.90;99.90
21267;DHT22;10791;53.108;18.326;2022-12-29T01:50:46;5.80;99.90
21267;DHT22;10791;53.108;18.326;2022-12-29T01:55:55;5.80;99.90
21267;DHT22;10791;53.108;18.326;2022-12-29T02:00:59;5.80;99.90
21267;DHT22;10791;53.108;18.326;2022-12-29T02:06:12;5.80;99.90
21267;DHT22;10791;53.108;18.326;2022-12-29T02:11:19;5.80;99.90
21267;DHT22;10791;53.108;18.326;2022-12-29T02:17:02;5.80;99.90
21267;DHT22;10791;53.108;18.326;2022-12-29T02:38:51;5.90;99.90
21267;DHT22;10791;53.108;18.326;2022-12-29T02:50:15;6.00;99.90
21267;DHT22;10791;53.108;18.326;2022-12-29T02:54:54;6.00;99.90
21267;DHT22;10791;53.108;18.326;2022-12-29T03:00:05;6.00;99.90
21267;DHT22;10791;53.108;18.326;2022-12-29T03:05:30;6.00;99.90
21267;DHT22;10791;53.108;18.326;2022-12-29T03:27:39;6.20;99.90
21267;DHT22;10791;53.108;18.326;2022-12-29T03:33:04;6.30;99.90
21267;DHT22;10791;53.108;18.326;2022-12-29T03:38:23;6.20;99.90
21267;DHT22;10791;53.108;18.326;2022-12-29T03:43:27;6.20;99.90
21267;DHT22;10791;53.108;18.326;2022-12-29T03:48:32;6.30;99.90
21267;DHT22;10791;53.108;18.326;2022-12-29T03:53:36;6.20;99.90
21267;DHT22;10791;53.108;18.326;2022-12-29T03:58:39;6.20;99.90
21267;DHT22;10791;53.108;18.326;2022-12-29T04:03:42;6.10;99.90
21267;DHT22;10791;53.108;18.326;2022-12-29T04:08:46;6.10;99.90
21267;DHT22;10791;53.108;18.326;2022-12-29T04:13:49;6.10;99.90
21267;DHT22;10791;53.108;18.326;2022-12-29T04:18:53;6.10;99.90
21267;DHT22;10791;53.108;18.326;2022-12-29T04:23:56;6.10;99.90
21267;DHT22;10791;53.108;18.326;2022-12-29T04:29:00;6.10;99.90
21267;DHT22;10791;53.108;18.326;2022-12-29T04:34:03;6.10;99.90
21267;DHT22;10791;53.108;18.326;2022-12-29T04:39:08;6.10;99.90
21267;DHT22;10791;53.108;18.326;2022-12-29T04:44:11;6.10;99.90
21267;DHT22;10791;53.108;18.326;2022-12-29T04:49:15;6.10;99.90
21267;DHT22;10791;53.108;18.326;2022-12-29T04:54:19;6.20;99.90
21267;DHT22;10791;53.108;18.326;2022-12-29T04:59:23;6.20;99.90
21267;DHT22;10791;53.108;18.326;2022-12-29T05:04:52;6.20;99.90
21267;DHT22;10791;53.108;18.326;2022-12-29T05:09:56;6.10;99.90
21267;DHT22;10791;53.108;18.326;2022-12-29T05:14:59;6.20;99.90
21267;DHT22;10791;53.108;18.326;2022-12-29T05:20:05;6.20;99.90
21267;DHT22;10791;53.108;18.326;2022-12-29T05:25:09;6.20;99.90
21267;DHT22;10791;53.108;18.326;2022-12-29T05:30:12;6.20;99.90
21267;DHT22;10791;53.108;18.326;2022-12-29T05:35:16;6.30;99.90
21267;DHT22;10791;53.108;18.326;2022-12-29T05:40:19;6.30;99.90
21267;DHT22;10791;53.108;18.326;2022-12-29T05:45:23;6.30;99.90
21267;DHT22;10791;53.108;18.326;2022-12-29T05:50:26;6.40;99.90
21267;DHT22;10791;53.108;18.326;2022-12-29T05:55:30;6.40;99.90
21267;DHT22;10791;53.108;18.326;2022-12-29T06:00:34;6.40;99.90
21267;DHT22;10791;53.108;18.326;2022-12-29T06:05:38;6.50;99.90
21267;DHT22;10791;53.108;18.326;2022-12-29T06:10:41;6.50;99.90
21267;DHT22;10791;53.108;18.326;2022-12-29T06:15:45;6.50;99.90
21267;DHT22;10791;53.108;18.326;2022-12-29T06:20:53;6.50;99.90
21267;DHT22;10791;53.108;18.326;2022-12-29T06:25:56;6.60;99.90
21267;DHT22;10791;53.108;18.326;2022-12-29T06:31:00;6.60;99.90
21267;DHT22;10791;53.108;18.326;2022-12-29T06:36:06;6.60;99.90
21267;DHT22;10791;53.108;18.326;2022-12-29T06:41:09;6.60;99.90
21267;DHT22;10791;53.108;18.326;2022-12-29T06:46:13;6.70;99.90
21267;DHT22;10791;53.108;18.326;2022-12-29T06:51:16;6.70;99.90
21267;DHT22;10791;53.108;18.326;2022-12-29T06:56:20;6.60;99.90
21267;DHT22;10791;53.108;18.326;2022-12-29T07:01:23;6.60;99.90
21267;DHT22;10791;53.108;18.326;2022-12-29T07:06:26;6.60;99.90
21267;DHT22;10791;53.108;18.326;2022-12-29T07:11:30;6.60;99.90
21267;DHT22;10791;53.108;18.326;2022-12-29T07:16:34;6.70;99.90
21267;DHT22;10791;53.108;18.326;2022-12-29T07:21:37;6.70;99.90
21267;DHT22;10791;53.108;18.326;2022-12-29T07:26:49;6.70;99.90
21267;DHT22;10791;53.108;18.326;2022-12-29T07:31:52;6.70;99.90
21267;DHT22;10791;53.108;18.326;2022-12-29T07:36:55;6.90;99.90
21267;DHT22;10791;53.108;18.326;2022-12-29T07:41:59;6.90;99.90
21267;DHT22;10791;53.108;18.326;2022-12-29T07:47:06;6.90;99.90
21267;DHT22;10791;53.108;18.326;2022-12-29T07:52:10;7.00;99.90
21267;DHT22;10791;53.108;18.326;2022-12-29T07:57:14;7.10;99.90
21267;DHT22;10791;53.108;18.326;2022-12-29T08:02:17;7.10;99.90
21267;DHT22;10791;53.108;18.326;2022-12-29T08:07:21;7.20;99.90
21267;DHT22;10791;53.108;18.326;2022-12-29T08:12:25;7.30;99.90
21267;DHT22;10791;53.108;18.326;2022-12-29T08:17:28;7.20;99.90
21267;DHT22;10791;53.108;18.326;2022-12-29T08:22:31;7.20;99.90
21267;DHT22;10791;53.108;18.326;2022-12-29T08:27:36;7.20;99.90
21267;DHT22;10791;53.108;18.326;2022-12-29T08:32:41;7.20;99.90
21267;DHT22;10791;53.108;18.326;2022-12-29T08:37:48;7.30;99.90
21267;DHT22;10791;53.108;18.326;2022-12-29T08:42:51;7.40;99.90
21267;DHT22;10791;53.108;18.326;2022-12-29T08:47:54;7.60;99.90
21267;DHT22;10791;53.108;18.326;2022-12-29T08:52:58;7.70;99.90
21267;DHT22;10791;53.108;18.326;2022-12-29T08:58:02;7.70;99.90
21267;DHT22;10791;53.108;18.326;2022-12-29T09:03:05;7.80;99.90
21267;DHT22;10791;53.108;18.326;2022-12-29T09:08:10;7.90;99.90
21267;DHT22;10791;53.108;18.326;2022-12-29T09:13:15;8.10;99.90
21267;DHT22;10791;53.108;18.326;2022-12-29T09:18:19;8.10;99.90
21267;DHT22;10791;53.108;18.326;2022-12-29T09:23:27;8.20;99.90
21267;DHT22;10791;53.108;18.326;2022-12-29T09:28:31;8.20;99.90
21267;DHT22;10791;53.108;18.326;2022-12-29T09:33:35;8.10;99.90
21267;DHT22;10791;53.108;18.326;2022-12-29T09:38:41;8.20;99.90
21267;DHT22;10791;53.108;18.326;2022-12-29T09:49:22;8.20;99.90
21267;DHT22;10791;53.108;18.326;2022-12-29T09:54:46;8.20;99.90
21267;DHT22;10791;53.108;18.326;2022-12-29T10:00:21;8.20;99.90
21267;DHT22;10791;53.108;18.326;2022-12-29T10:10:48;8.30;99.90
21267;DHT22;10791;53.108;18.326;2022-12-29T10:26:36;8.40;99.90
21267;DHT22;10791;53.108;18.326;2022-12-29T10:31:48;8.50;99.90
21267;DHT22;10791;53.108;18.326;2022-12-29T10:37:00;8.60;99.90
21267;DHT22;10791;53.108;18.326;2022-12-29T10:42:42;8.70;99.90
21267;DHT22;10791;53.108;18.326;2022-12-29T10:47:56;8.80;99.90
21267;DHT22;10791;53.108;18.326;2022-12-29T10:53:04;8.90;99.90
21267;DHT22;10791;53.108;18.326;2022-12-29T10:58:12;8.90;99.90
21267;DHT22;10791;53.108;18.326;2022-12-29T11:03:40;8.80;99.90
21267;DHT22;10791;53.108;18.326;2022-12-29T11:08:55;8.80;99.90
21267;DHT22;10791;53.108;18.326;2022-12-29T11:14:31;8.80;99.90
21267;DHT22;10791;53.108;18.326;2022-12-29T11:19:35;8.80;99.90
21267;DHT22;10791;53.108;18.326;2022-12-29T11:24:46;8.80;99.90
21267;DHT22;10791;53.108;18.326;2022-12-29T11:29:52;9.00;99.90
21267;DHT22;10791;53.108;18.326;2022-12-29T11:34:57;9.00;99.90
21267;DHT22;10791;53.108;18.326;2022-12-29T11:40:15;9.00;99.90
21267;DHT22;10791;53.108;18.326;2022-12-29T11:45:23;9.10;99.90
21267;DHT22;10791;53.108;18.326;2022-12-29T11:50:30;9.10;99.90
21267;DHT22;10791;53.108;18.326;2022-12-29T11:55:35;9.10;99.90
21267;DHT22;10791;53.108;18.326;2022-12-29T12:00:39;9.10;99.90
21267;DHT22;10791;53.108;18.326;2022-12-29T12:06:00;9.20;99.90
21267;DHT22;10791;53.108;18.326;2022-12-29T12:16:18;9.70;99.90
21267;DHT22;10791;53.108;18.326;2022-12-29T12:21:32;9.90;99.90
21267;DHT22;10791;53.108;18.326;2022-12-29T12:54:24;10.40;99.90
21267;DHT22;10791;53.108;18.326;2022-12-29T12:59:50;10.40;99.90
21267;DHT22;10791;53.108;18.326;2022-12-29T13:10:43;10.40;99.90
21267;DHT22;10791;53.108;18.326;2022-12-29T13:16:13;10.40;99.90
21267;DHT22;10791;53.108;18.326;2022-12-29T13:37:12;10.50;99.90
21267;DHT22;10791;53.108;18.326;2022-12-29T13:42:19;10.40;99.90
21267;DHT22;10791;53.108;18.326;2022-12-29T13:52:56;10.10;99.90
21267;DHT22;10791;53.108;18.326;2022-12-29T14:14:27;9.60;99.90
21267;DHT22;10791;53.108;18.326;2022-12-29T14:19:34;9.50;99.90
21267;DHT22;10791;53.108;18.326;2022-12-29T14:24:42;9.40;99.90
21267;DHT22;10791;53.108;18.326;2022-12-29T14:29:51;9.30;99.90
21267;DHT22;10791;53.108;18.326;2022-12-29T14:34:59;9.20;99.90
21267;DHT22;10791;53.108;18.326;2022-12-29T14:40:25;9.10;99.90
21267;DHT22;10791;53.108;18.326;2022-12-29T14:45:30;9.00;99.90
21267;DHT22;10791;53.108;18.326;2022-12-29T14:50:41;8.90;99.90
21267;DHT22;10791;53.108;18.326;2022-12-29T14:55:47;8.70;99.90
21267;DHT22;10791;53.108;18.326;2022-12-29T15:00:57;8.70;99.90
21267;DHT22;10791;53.108;18.326;2022-12-29T15:06:06;8.60;99.90
21267;DHT22;10791;53.108;18.326;2022-12-29T15:11:24;8.70;99.90
21267;DHT22;10791;53.108;18.326;2022-12-29T15:16:33;8.70;99.90
21267;DHT22;10791;53.108;18.326;2022-12-29T15:21:42;8.70;99.90
21267;DHT22;10791;53.108;18.326;2022-12-29T15:26:48;8.70;99.90
21267;DHT22;10791;53.108;18.326;2022-12-29T15:31:52;8.70;99.90
21267;DHT22;10791;53.108;18.326;2022-12-29T15:36:56;8.80;99.90
21267;DHT22;10791;53.108;18.326;2022-12-29T15:42:51;8.80;99.90
21267;DHT22;10791;53.108;18.326;2022-12-29T15:47:37;8.90;99.90
21267;DHT22;10791;53.108;18.326;2022-12-29T15:52:41;8.90;99.90
21267;DHT22;10791;53.108;18.326;2022-12-29T15:57:46;8.90;99.90
21267;DHT22;10791;53.108;18.326;2022-12-29T16:02:50;8.90;99.90
21267;DHT22;10791;53.108;18.326;2022-12-29T16:07:58;9.00;99.90
21267;DHT22;10791;53.108;18.326;2022-12-29T16:18:33;9.00;99.90
21267;DHT22;10791;53.108;18.326;2022-12-29T16:23:38;9.00;99.90
21267;DHT22;10791;53.108;18.326;2022-12-29T16:28:42;9.00;99.90
21267;DHT22;10791;53.108;18.326;2022-12-29T16:33:55;9.00;99.90
21267;DHT22;10791;53.108;18.326;2022-12-29T16:39:30;8.90;99.90
21267;DHT22;10791;53.108;18.326;2022-12-29T16:44:34;8.90;99.90
21267;DHT22;10791;53.108;18.326;2022-12-29T16:49:47;8.90;99.90
21267;DHT22;10791;53.108;18.326;2022-12-29T16:54:56;8.90;99.90
21267;DHT22;10791;53.108;18.326;2022-12-29T17:00:04;8.90;99.90
21267;DHT22;10791;53.108;18.326;2022-12-29T17:05:13;8.90;99.90
21267;DHT22;10791;53.108;18.326;2022-12-29T17:10:16;8.90;99.90
21267;DHT22;10791;53.108;18.326;2022-12-29T17:15:26;8.90;99.90
21267;DHT22;10791;53.108;18.326;2022-12-29T17:20:35;8.90;99.90
21267;DHT22;10791;53.108;18.326;2022-12-29T17:25:39;8.90;99.90
21267;DHT22;10791;53.108;18.326;2022-12-29T17:30:42;8.90;99.90
21267;DHT22;10791;53.108;18.326;2022-12-29T17:35:46;8.80;99.90
21267;DHT22;10791;53.108;18.326;2022-12-29T17:40:57;8.90;99.90
21267;DHT22;10791;53.108;18.326;2022-12-29T17:46:01;8.80;99.90
21267;DHT22;10791;53.108;18.326;2022-12-29T17:51:05;8.90;99.90
21267;DHT22;10791;53.108;18.326;2022-12-29T17:56:08;8.80;99.90
21267;DHT22;10791;53.108;18.326;2022-12-29T18:01:12;8.80;99.90
21267;DHT22;10791;53.108;18.326;2022-12-29T18:06:16;8.80;99.90
21267;DHT22;10791;53.108;18.326;2022-12-29T18:11:26;8.70;99.90
21267;DHT22;10791;53.108;18.326;2022-12-29T18:16:29;8.70;99.90
21267;DHT22;10791;53.108;18.326;2022-12-29T18:21:35;8.60;99.90
21267;DHT22;10791;53.108;18.326;2022-12-29T18:26:39;8.60;99.90
21267;DHT22;10791;53.108;18.326;2022-12-29T18:31:42;8.60;99.90
21267;DHT22;10791;53.108;18.326;2022-12-29T18:36:47;8.60;99.90
21267;DHT22;10791;53.108;18.326;2022-12-29T18:41:51;8.60;99.90
21267;DHT22;10791;53.108;18.326;2022-12-29T18:46:55;8.60;99.90
21267;DHT22;10791;53.108;18.326;2022-12-29T18:51:58;8.60;99.90
21267;DHT22;10791;53.108;18.326;2022-12-29T18:57:03;8.60;99.90
21267;DHT22;10791;53.108;18.326;2022-12-29T19:02:15;8.50;99.90
21267;DHT22;10791;53.108;18.326;2022-12-29T19:07:19;8.50;99.90
21267;DHT22;10791;53.108;18.326;2022-12-29T19:12:23;8.40;99.90
21267;DHT22;10791;53.108;18.326;2022-12-29T19:17:30;8.30;99.90
21267;DHT22;10791;53.108;18.326;2022-12-29T19:22:34;8.20;99.90
21267;DHT22;10791;53.108;18.326;2022-12-29T19:27:39;8.10;99.90
21267;DHT22;10791;53.108;18.326;2022-12-29T19:32:43;8.00;99.90
21267;DHT22;10791;53.108;18.326;2022-12-29T19:37:48;8.00;99.90
21267;DHT22;10791;53.108;18.326;2022-12-29T19:42:52;8.00;99.90
21267;DHT22;10791;53.108;18.326;2022-12-29T19:47:55;8.00;99.90
21267;DHT22;10791;53.108;18.326;2022-12-29T19:53:00;7.90;99.90
21267;DHT22;10791;53.108;18.326;2022-12-29T19:58:07;7.90;99.90
21267;DHT22;10791;53.108;18.326;2022-12-29T20:03:11;7.90;99.90
21267;DHT22;10791;53.108;18.326;2022-12-29T20:08:16;7.90;99.90
21267;DHT22;10791;53.108;18.326;2022-12-29T20:13:35;8.00;99.90
21267;DHT22;10791;53.108;18.326;2022-12-29T20:18:42;8.10;99.90
21267;DHT22;10791;53.108;18.326;2022-12-29T20:23:51;8.20;99.90
21267;DHT22;10791;53.108;18.326;2022-12-29T20:28:56;8.30;99.90
21267;DHT22;10791;53.108;18.326;2022-12-29T20:34:00;8.20;99.90
21267;DHT22;10791;53.108;18.326;2022-12-29T20:39:07;8.30;99.90
21267;DHT22;10791;53.108;18.326;2022-12-29T20:44:12;8.30;99.90
21267;DHT22;10791;53.108;18.326;2022-12-29T20:49:16;8.30;99.90
21267;DHT22;10791;53.108;18.326;2022-12-29T20:54:20;8.30;99.90
21267;DHT22;10791;53.108;18.326;2022-12-29T20:59:24;8.30;99.90
21267;DHT22;10791;53.108;18.326;2022-12-29T21:04:30;8.30;99.90
21267;DHT22;10791;53.108;18.326;2022-12-29T21:09:54;8.30;99.90
21267;DHT22;10791;53.108;18.326;2022-12-29T21:14:58;8.30;99.90
21267;DHT22;10791;53.108;18.326;2022-12-29T21:20:02;8.20;99.90
21267;DHT22;10791;53.108;18.326;2022-12-29T21:25:06;8.20;99.90
21267;DHT22;10791;53.108;18.326;2022-12-29T21:30:11;8.20;99.90
21267;DHT22;10791;53.108;18.326;2022-12-29T21:35:15;8.30;99.90
21267;DHT22;10791;53.108;18.326;2022-12-29T21:40:18;8.40;99.90
21267;DHT22;10791;53.108;18.326;2022-12-29T21:45:25;8.50;99.90
21267;DHT22;10791;53.108;18.326;2022-12-29T21:50:29;8.50;99.90
21267;DHT22;10791;53.108;18.326;2022-12-29T21:55:33;8.60;99.90
21267;DHT22;10791;53.108;18.326;2022-12-29T22:00:37;8.60;99.90
21267;DHT22;10791;53.108;18.326;2022-12-29T22:05:59;8.60;99.90
21267;DHT22;10791;53.108;18.326;2022-12-29T22:11:22;8.60;99.90
21267;DHT22;10791;53.108;18.326;2022-12-29T22:16:44;8.50;99.90
21267;DHT22;10791;53.108;18.326;2022-12-29T22:21:48;8.40;99.90
21267;DHT22;10791;53.108;18.326;2022-12-29T22:26:53;8.40;99.90
21267;DHT22;10791;53.108;18.326;2022-12-29T22:31:56;8.40;99.90
21267;DHT22;10791;53.108;18.326;2022-12-29T22:37:01;8.50;99.90
21267;DHT22;10791;53.108;18.326;2022-12-29T22:42:07;8.60;99.90
21267;DHT22;10791;53.108;18.326;2022-12-29T22:47:11;8.60;99.90
21267;DHT22;10791;53.108;18.326;2022-12-29T22:52:15;8.70;99.90
21267;DHT22;10791;53.108;18.326;2022-12-29T22:57:19;8.80;99.90
21267;DHT22;10791;53.108;18.326;2022-12-29T23:02:22;8.80;99.90
21267;DHT22;10791;53.108;18.326;2022-12-29T23:07:26;8.80;99.90
21267;DHT22;10791;53.108;18.326;2022-12-29T23:12:30;8.80;99.90
21267;DHT22;10791;53.108;18.326;2022-12-29T23:17:35;8.80;99.90
21267;DHT22;10791;53.108;18.326;2022-12-29T23:22:38;8.90;99.90
21267;DHT22;10791;53.108;18.326;2022-12-29T23:27:42;8.90;99.90
21267;DHT22;10791;53.108;18.326;2022-12-29T23:32:46;8.90;99.90
21267;DHT22;10791;53.108;18.326;2022-12-29T23:37:49;8.90;99.90
21267;DHT22;10791;53.108;18.326;2022-12-29T23:42:53;9.00;99.90
21267;DHT22;10791;53.108;18.326;2022-12-29T23:47:57;9.00;99.90
21267;DHT22;10791;53.108;18.326;2022-12-29T23:53:00;9.00;99.90
21267;DHT22;10791;53.108;18.326;2022-12-29T23:58:03;9.00;99.90
